FKKR

Garoua International Airport

Garoua, Cameroon
METAR FKKR 171300Z 20005KT 150V280 CAVOK 34/M02 Q1012 NOSIG
Observed Flight Rules
Dec-17 @ 13:00 UTC (26 minutes ago) Visual Flight Rules
Wind Visibility Clouds
200° at 5 knots 10,000+ meters
  • Clear skies
Temperatures Readings
Current 34°C / 93°F
Dewpoint -2°C / 28°F
Humidity 10%
Altimeter 29.88" Hg
Pressure 1012 hPa
Elevation 244
METAR FKKR 171300Z 20005KT 150V280 CAVOK 34/M02 Q1012 NOSIG
Observed Flight Rules
Dec-17 @ 13:00 UTC
(26 minutes ago)
VFR
Wind Visibility
200° at 5 knots 10,000+ meters
Clouds
  • Clear skies
Temperature Dewpoint
34°C / 93°F -2°C / 28°F
Humidity Altimeter Pressure
10% 29.88" Hg 1012 hPa